Time;durP1;ratioP1;P1;durP2;ratioP2;P2;SDS_P1;SDS_P2;PMS_P1;PMS_P2;Temp;Humidity;BMP_temperature;BMP_pressure;BME280_temperature;BME280_humidity;BME280_pressure;Samples;Min_cycle;Max_cycle;Signal;HPM_P1;HPM_P2
2023/05/29 00:01:10;;;;;;;5.72;3.95;;;;;;;;;;6195727;28;20042;-82
2023/05/29 00:04:12;;;;;;;4.57;3.50;;;;;;;;;;6195367;28;20065;-83
2023/05/29 00:07:17;;;;;;;5.45;3.63;;;;;;;;;;6193842;28;20113;-84
2023/05/29 00:10:19;;;;;;;5.57;3.08;;;;;;;;;;6194307;28;20066;-83
2023/05/29 00:13:22;;;;;;;5.32;3.00;;;;;;;;;;6196632;28;20065;-80
2023/05/29 00:16:24;;;;;;;6.00;3.35;;;;;;;;;;6193897;28;20220;-82
2023/05/29 00:19:27;;;;;;;6.45;3.30;;;;;;;;;;6196894;28;20054;-83
2023/05/29 00:22:28;;;;;;;4.32;3.17;;;;;;;;;;6196541;28;20061;-83
2023/05/29 00:25:30;;;;;;;6.72;3.00;;;;;;;;;;6194685;28;20051;-82
2023/05/29 00:28:35;;;;;;;4.38;3.30;;;;;;;;;;6190060;28;20054;-83
2023/05/29 00:31:36;;;;;;;4.20;3.13;;;;;;;;;;6193591;28;20046;-83
2023/05/29 00:34:38;;;;;;;4.35;3.15;;;;;;;;;;6193465;28;20058;-83
2023/05/29 00:37:40;;;;;;;4.38;3.20;;;;;;;;;;6197143;28;20286;-82
2023/05/29 00:40:42;;;;;;;4.85;3.10;;;;;;;;;;6195383;28;20297;-82
2023/05/29 00:43:45;;;;;;;4.68;3.35;;;;;;;;;;6195625;28;20058;-83
2023/05/29 00:46:47;;;;;;;5.82;3.00;;;;;;;;;;6196807;28;20093;-82
2023/05/29 00:49:51;;;;;;;4.65;3.42;;;;;;;;;;6193757;28;20062;-81
2023/05/29 00:52:53;;;;;;;4.53;3.30;;;;;;;;;;6194948;28;20059;-83
2023/05/29 00:55:55;;;;;;;5.70;3.10;;;;;;;;;;6194723;28;20065;-81
2023/05/29 00:58:58;;;;;;;5.60;3.72;;;;;;;;;;6195320;28;20235;-83
2023/05/29 01:02:01;;;;;;;5.03;3.33;;;;;;;;;;6190608;28;20334;-81
2023/05/29 01:05:06;;;;;;;4.97;3.80;;;;;;;;;;6193474;28;20054;-81
2023/05/29 01:08:08;;;;;;;6.43;4.07;;;;;;;;;;6193384;28;20061;-83
2023/05/29 01:11:16;;;;;;;7.40;3.83;;;;;;;;;;6194915;28;20054;-82
2023/05/29 01:14:24;;;;;;;4.88;4.20;;;;;;;;;;6196474;28;20054;-81
2023/05/29 01:17:36;;;;;;;4.85;4.10;;;;;;;;;;6194144;28;20055;-82
2023/05/29 01:20:42;;;;;;;5.75;4.28;;;;;;;;;;6191723;28;20113;-82
2023/05/29 01:24:15;;;;;;;7.15;4.53;;;;;;;;;;6194147;28;20058;-82
2023/05/29 01:27:20;;;;;;;5.65;4.22;;;;;;;;;;6149188;28;20779;-82
2023/05/29 01:30:23;;;;;;;8.98;5.22;;;;;;;;;;6147433;28;20066;-82
2023/05/29 01:33:24;;;;;;;5.72;4.75;;;;;;;;;;6146667;28;20047;-81
2023/05/29 01:36:27;;;;;;;7.43;4.65;;;;;;;;;;6149499;28;20087;-81
2023/05/29 01:39:29;;;;;;;6.60;5.00;;;;;;;;;;6148701;28;20058;-81
2023/05/29 01:42:32;;;;;;;7.30;4.45;;;;;;;;;;6146248;28;20047;-81
2023/05/29 01:45:34;;;;;;;7.85;4.90;;;;;;;;;;6149148;28;20063;-81
2023/05/29 01:48:36;;;;;;;6.25;4.63;;;;;;;;;;6147529;28;20066;-81
2023/05/29 01:51:39;;;;;;;6.65;4.65;;;;;;;;;;6148353;28;20062;-82
2023/05/29 01:54:41;;;;;;;7.10;5.15;;;;;;;;;;6151713;28;20106;-81
2023/05/29 01:57:44;;;;;;;8.48;5.20;;;;;;;;;;6148204;28;20328;-80
2023/05/29 02:00:46;;;;;;;6.60;5.30;;;;;;;;;;6145941;28;20543;-81
2023/05/29 02:03:48;;;;;;;8.18;5.05;;;;;;;;;;6186759;28;20073;-83
2023/05/29 02:06:52;;;;;;;6.25;4.50;;;;;;;;;;6196254;28;20077;-81
2023/05/29 02:09:53;;;;;;;5.78;4.53;;;;;;;;;;6192954;28;20062;-82
2023/05/29 02:12:57;;;;;;;8.63;5.28;;;;;;;;;;6192365;28;20373;-81
2023/05/29 02:15:58;;;;;;;;;;;;;;;;;;6191091;28;20069;-81
2023/05/29 02:19:01;;;;;;;6.75;5.03;;;;;;;;;;6193427;28;19926;-81
2023/05/29 02:22:02;;;;;;;5.80;4.72;;;;;;;;;;6190550;28;20054;-82
2023/05/29 02:25:05;;;;;;;7.68;5.05;;;;;;;;;;6192385;28;20284;-80
2023/05/29 02:28:08;;;;;;;8.40;5.35;;;;;;;;;;6193129;28;20113;-83
2023/05/29 02:31:10;;;;;;;6.57;4.82;;;;;;;;;;6192020;28;20101;-82
2023/05/29 02:34:12;;;;;;;8.43;5.15;;;;;;;;;;6191759;28;20051;-81
2023/05/29 02:37:13;;;;;;;7.40;5.10;;;;;;;;;;6195260;28;20058;-81
2023/05/29 02:40:15;;;;;;;6.22;4.93;;;;;;;;;;6192280;28;20058;-81
2023/05/29 02:43:18;;;;;;;7.53;5.43;;;;;;;;;;6193310;28;20050;-81
2023/05/29 02:46:21;;;;;;;7.88;5.05;;;;;;;;;;6192909;28;20065;-81
2023/05/29 02:49:23;;;;;;;7.90;5.82;;;;;;;;;;6191992;28;20291;-81
2023/05/29 02:52:25;;;;;;;9.23;5.38;;;;;;;;;;6190477;28;20093;-83
2023/05/29 02:55:26;;;;;;;9.93;5.53;;;;;;;;;;6192365;28;20133;-82
2023/05/29 02:58:30;;;;;;;7.43;5.60;;;;;;;;;;6192410;28;20042;-83
2023/05/29 03:01:32;;;;;;;8.60;5.30;;;;;;;;;;6190150;28;20242;-81
2023/05/29 03:04:34;;;;;;;7.37;5.10;;;;;;;;;;6191340;28;20058;-81
2023/05/29 03:07:36;;;;;;;7.40;5.38;;;;;;;;;;6191220;28;20117;-81
2023/05/29 03:10:37;;;;;;;8.43;5.50;;;;;;;;;;6185341;28;20078;-84
2023/05/29 03:13:40;;;;;;;7.15;5.30;;;;;;;;;;6167618;28;20055;-80
2023/05/29 03:16:42;;;;;;;7.93;5.68;;;;;;;;;;6166540;28;20053;-80
2023/05/29 03:19:44;;;;;;;7.90;5.25;;;;;;;;;;6168504;28;20062;-82
2023/05/29 03:22:45;;;;;;;10.80;5.93;;;;;;;;;;6181437;28;20051;-81
2023/05/29 03:25:47;;;;;;;7.32;5.70;;;;;;;;;;6167742;28;20314;-81
2023/05/29 03:28:50;;;;;;;7.05;5.15;;;;;;;;;;6166158;28;20047;-82
2023/05/29 03:31:52;;;;;;;7.38;5.15;;;;;;;;;;6166703;28;20063;-82
2023/05/29 03:34:55;;;;;;;7.78;5.15;;;;;;;;;;6167014;28;20046;-82
2023/05/29 03:37:56;;;;;;;7.40;5.55;;;;;;;;;;6166769;28;20078;-81
2023/05/29 03:40:58;;;;;;;8.07;5.55;;;;;;;;;;6174922;28;20093;-81
2023/05/29 03:44:01;;;;;;;8.40;5.78;;;;;;;;;;6188797;28;20098;-81
2023/05/29 03:47:03;;;;;;;7.93;5.43;;;;;;;;;;6191308;28;20046;-82
2023/05/29 03:50:06;;;;;;;7.93;5.53;;;;;;;;;;6174483;28;20062;-80
2023/05/29 03:53:07;;;;;;;6.88;4.97;;;;;;;;;;6175791;28;20051;-81
2023/05/29 03:56:09;;;;;;;9.20;5.53;;;;;;;;;;6174532;28;20055;-82
2023/05/29 03:59:12;;;;;;;9.52;6.07;;;;;;;;;;6169503;28;20058;-81
2023/05/29 04:02:14;;;;;;;11.57;5.18;;;;;;;;;;6166642;28;20055;-82
2023/05/29 04:05:15;;;;;;;9.43;5.60;;;;;;;;;;6164593;28;20338;-81
2023/05/29 04:08:17;;;;;;;7.95;5.13;;;;;;;;;;6162870;28;20051;-81
2023/05/29 04:11:20;;;;;;;7.00;5.53;;;;;;;;;;6179552;28;20051;-82
2023/05/29 04:14:23;;;;;;;7.28;5.07;;;;;;;;;;6169365;28;20153;-81
2023/05/29 04:17:25;;;;;;;8.68;5.68;;;;;;;;;;6167272;28;20114;-82
2023/05/29 04:20:27;;;;;;;6.95;5.70;;;;;;;;;;6166291;28;20212;-81
2023/05/29 04:23:28;;;;;;;12.70;5.90;;;;;;;;;;6161157;28;20051;-77
2023/05/29 04:26:32;;;;;;;7.68;5.55;;;;;;;;;;6164747;28;20119;-78
2023/05/29 04:29:35;;;;;;;10.00;5.82;;;;;;;;;;6162825;28;20065;-71
2023/05/29 04:32:38;;;;;;;8.20;6.00;;;;;;;;;;6162502;28;20161;-84
2023/05/29 04:35:42;;;;;;;9.52;5.80;;;;;;;;;;6163276;28;20058;-87
2023/05/29 04:38:44;;;;;;;8.98;6.47;;;;;;;;;;6167828;28;20054;-89
2023/05/29 04:41:46;;;;;;;10.73;7.60;;;;;;;;;;6169463;28;20323;-89
2023/05/29 04:44:50;;;;;;;14.75;9.82;;;;;;;;;;6173241;28;20054;-87
2023/05/29 04:47:53;;;;;;;19.88;10.52;;;;;;;;;;6169664;28;20069;-84
2023/05/29 04:50:55;;;;;;;18.63;12.07;;;;;;;;;;6168585;28;20050;-89
2023/05/29 04:53:57;;;;;;;26.13;12.75;;;;;;;;;;6143980;28;20063;-86
2023/05/29 04:56:59;;;;;;;19.38;12.30;;;;;;;;;;6145991;28;20059;-84
2023/05/29 05:00:05;;;;;;;18.35;12.00;;;;;;;;;;6146020;28;20055;-90
2023/05/29 05:03:06;;;;;;;18.67;13.10;;;;;;;;;;6154058;28;20054;-87
2023/05/29 05:06:08;;;;;;;20.10;12.27;;;;;;;;;;6170587;28;20054;-89
2023/05/29 05:09:10;;;;;;;21.05;13.75;;;;;;;;;;6175295;28;20047;-86
2023/05/29 05:12:12;;;;;;;26.48;14.50;;;;;;;;;;6171128;28;20054;-88
2023/05/29 05:15:15;;;;;;;27.20;15.52;;;;;;;;;;6172493;28;20133;-86
2023/05/29 05:18:17;;;;;;;28.73;17.40;;;;;;;;;;6168215;28;20082;-86
2023/05/29 05:21:18;;;;;;;31.02;18.05;;;;;;;;;;6171429;28;20051;-87
2023/05/29 05:24:20;;;;;;;29.02;18.52;;;;;;;;;;6168682;28;20062;-87
2023/05/29 05:27:22;;;;;;;36.67;19.92;;;;;;;;;;6173355;28;20059;-88
2023/05/29 05:30:25;;;;;;;33.38;19.27;;;;;;;;;;6171572;28;20063;-91
2023/05/29 05:33:27;;;;;;;33.38;18.63;;;;;;;;;;6169297;28;20058;-84
2023/05/29 05:36:28;;;;;;;34.58;18.70;;;;;;;;;;6168008;28;20375;-86
2023/05/29 05:39:30;;;;;;;25.77;16.65;;;;;;;;;;6167103;28;20058;-86
2023/05/29 05:42:32;;;;;;;26.52;16.20;;;;;;;;;;6169737;28;20058;-84
2023/05/29 05:45:36;;;;;;;29.90;16.45;;;;;;;;;;6172631;28;20279;-87
2023/05/29 05:48:37;;;;;;;23.10;15.50;;;;;;;;;;6167556;28;20051;-86
2023/05/29 05:51:39;;;;;;;26.60;16.55;;;;;;;;;;6172140;28;20149;-85
2023/05/29 05:54:41;;;;;;;23.45;15.75;;;;;;;;;;6190956;28;20046;-86
2023/05/29 05:57:42;;;;;;;18.60;12.80;;;;;;;;;;6192292;28;20051;-88
2023/05/29 06:00:46;;;;;;;19.45;12.88;;;;;;;;;;6191708;28;20061;-88
2023/05/29 06:03:47;;;;;;;19.63;12.48;;;;;;;;;;6192486;28;20573;-85
2023/05/29 06:06:49;;;;;;;17.30;11.40;;;;;;;;;;6193807;28;20050;-86
2023/05/29 06:09:51;;;;;;;19.10;11.60;;;;;;;;;;6194291;28;20105;-86
2023/05/29 06:12:53;;;;;;;17.77;11.68;;;;;;;;;;6190354;28;20140;-82
2023/05/29 06:15:56;;;;;;;13.95;11.32;;;;;;;;;;6190265;28;20047;-87
2023/05/29 06:18:58;;;;;;;21.55;11.38;;;;;;;;;;6192297;28;20199;-81
2023/05/29 06:22:00;;;;;;;14.73;11.15;;;;;;;;;;6193948;28;20069;-88
2023/05/29 06:25:01;;;;;;;14.80;10.55;;;;;;;;;;6190264;28;20062;-89
2023/05/29 06:28:05;;;;;;;15.15;10.13;;;;;;;;;;6191877;28;20054;-84
2023/05/29 06:31:09;;;;;;;13.88;9.88;;;;;;;;;;6190209;28;20374;-90
2023/05/29 06:34:10;;;;;;;15.18;10.93;;;;;;;;;;6188288;28;20286;-84
2023/05/29 06:37:12;;;;;;;14.18;9.65;;;;;;;;;;6190761;28;20258;-84
2023/05/29 06:40:15;;;;;;;13.57;10.13;;;;;;;;;;6189118;28;20208;-84
2023/05/29 06:43:17;;;;;;;11.77;9.10;;;;;;;;;;6193533;28;20212;-84
2023/05/29 06:46:20;;;;;;;13.30;8.55;;;;;;;;;;6193036;28;20058;-83
2023/05/29 06:49:22;;;;;;;12.70;8.85;;;;;;;;;;6192041;28;20118;-85
2023/05/29 06:52:23;;;;;;;14.40;10.10;;;;;;;;;;6192678;28;20602;-83
2023/05/29 06:55:25;;;;;;;12.52;9.32;;;;;;;;;;6191681;28;20117;-84
2023/05/29 06:58:27;;;;;;;17.15;10.13;;;;;;;;;;6193205;28;20231;-84
2023/05/29 07:01:30;;;;;;;15.05;9.98;;;;;;;;;;6189346;28;20054;-84
2023/05/29 07:04:31;;;;;;;12.68;10.18;;;;;;;;;;6192358;28;20058;-83
2023/05/29 07:07:33;;;;;;;13.52;10.82;;;;;;;;;;6192732;28;20054;-83
2023/05/29 07:10:35;;;;;;;15.27;10.80;;;;;;;;;;6190011;28;20054;-81
2023/05/29 07:13:36;;;;;;;13.35;9.63;;;;;;;;;;6187464;28;20270;-83
2023/05/29 07:16:40;;;;;;;13.30;10.70;;;;;;;;;;6194071;28;20055;-82
2023/05/29 07:19:41;;;;;;;14.88;10.90;;;;;;;;;;6190157;28;20118;-82
2023/05/29 07:22:43;;;;;;;16.45;11.38;;;;;;;;;;6190432;28;20050;-79
2023/05/29 07:25:45;;;;;;;14.80;10.93;;;;;;;;;;6190129;28;20174;-82
2023/05/29 07:28:46;;;;;;;14.18;10.95;;;;;;;;;;6193057;28;20054;-80
2023/05/29 07:31:50;;;;;;;15.85;11.55;;;;;;;;;;6191563;28;20062;-80
2023/05/29 07:34:51;;;;;;;15.95;10.73;;;;;;;;;;6190349;28;20054;-79
2023/05/29 07:37:54;;;;;;;12.02;9.73;;;;;;;;;;6192458;28;20283;-82
2023/05/29 07:40:56;;;;;;;14.77;11.30;;;;;;;;;;6191485;28;20062;-80
2023/05/29 07:43:57;;;;;;;15.35;10.23;;;;;;;;;;6190511;28;20054;-81
2023/05/29 07:47:00;;;;;;;15.63;10.82;;;;;;;;;;6189433;28;20109;-79
2023/05/29 07:50:02;;;;;;;16.52;11.68;;;;;;;;;;6193320;28;20122;-80
2023/05/29 07:53:04;;;;;;;14.00;10.10;;;;;;;;;;6191855;28;20396;-82
2023/05/29 07:56:06;;;;;;;15.90;10.00;;;;;;;;;;6193664;28;20062;-79
2023/05/29 07:59:08;;;;;;;17.80;10.10;;;;;;;;;;6191526;28;20397;-81
2023/05/29 08:02:12;;;;;;;13.23;9.40;;;;;;;;;;6192565;28;20046;-82
2023/05/29 08:05:13;;;;;;;;;;;;;;;;;;6191479;28;20101;-83
2023/05/29 08:08:15;;;;;;;12.77;9.13;;;;;;;;;;6192344;28;20002;-81
2023/05/29 08:11:17;;;;;;;15.27;9.85;;;;;;;;;;6191672;28;20364;-82
2023/05/29 08:14:18;;;;;;;11.70;9.52;;;;;;;;;;6192837;28;20096;-82
2023/05/29 08:17:21;;;;;;;11.07;8.45;;;;;;;;;;6195293;28;20062;-79
2023/05/29 08:20:23;;;;;;;10.45;7.78;;;;;;;;;;6194580;28;20286;-82
2023/05/29 08:23:25;;;;;;;13.50;7.85;;;;;;;;;;6197114;28;20346;-81
2023/05/29 08:26:27;;;;;;;11.98;9.02;;;;;;;;;;6197532;28;20065;-80
2023/05/29 08:29:29;;;;;;;10.47;8.53;;;;;;;;;;6196429;28;20053;-81
2023/05/29 08:32:32;;;;;;;10.70;8.55;;;;;;;;;;6197393;28;20059;-82
2023/05/29 08:35:33;;;;;;;;;;;;;;;;;;6196107;28;20058;-81
2023/05/29 08:38:35;;;;;;;11.90;8.88;;;;;;;;;;6198000;28;19926;-83
2023/05/29 08:41:45;;;;;;;12.32;9.07;;;;;;;;;;6195192;28;20050;-82
2023/05/29 08:44:49;;;;;;;10.85;9.05;;;;;;;;;;6197229;28;20046;-80
2023/05/29 08:47:53;;;;;;;13.30;9.15;;;;;;;;;;6194003;28;20093;-77
2023/05/29 08:50:56;;;;;;;14.52;9.98;;;;;;;;;;6193129;28;20300;-77
2023/05/29 08:53:58;;;;;;;12.85;10.30;;;;;;;;;;6194525;28;20062;-78
2023/05/29 08:57:01;;;;;;;13.32;8.88;;;;;;;;;;6196658;28;20058;-77
2023/05/29 09:00:08;;;;;;;12.13;10.35;;;;;;;;;;6195759;28;20422;-79
2023/05/29 09:03:12;;;;;;;10.40;9.30;;;;;;;;;;6195507;28;20059;-77
2023/05/29 09:06:14;;;;;;;11.45;9.75;;;;;;;;;;6192568;28;20230;-77
2023/05/29 09:09:16;;;;;;;12.85;9.20;;;;;;;;;;6191760;28;20046;-77
2023/05/29 09:12:18;;;;;;;11.18;9.60;;;;;;;;;;6196341;28;20050;-77
2023/05/29 09:15:21;;;;;;;11.85;9.43;;;;;;;;;;6193464;28;20058;-78
2023/05/29 09:18:23;;;;;;;;;;;;;;;;;;6192052;28;20369;-81
2023/05/29 09:21:33;;;;;;;11.73;9.40;;;;;;;;;;6196021;28;20098;-77
2023/05/29 09:24:36;;;;;;;12.50;9.55;;;;;;;;;;6191056;28;20297;-77
2023/05/29 09:27:40;;;;;;;12.13;9.70;;;;;;;;;;6193589;28;20342;-78
2023/05/29 09:30:44;;;;;;;12.07;10.10;;;;;;;;;;6192910;28;20162;-79
2023/05/29 09:33:50;;;;;;;13.68;10.05;;;;;;;;;;6193870;28;22294;-77
2023/05/29 09:36:56;;;;;;;13.02;9.82;;;;;;;;;;6194452;28;20054;-78
2023/05/29 09:39:58;;;;;;;16.50;10.15;;;;;;;;;;6191031;28;20057;-77
2023/05/29 09:43:07;;;;;;;12.77;9.87;;;;;;;;;;6195523;28;20054;-78
2023/05/29 09:46:08;;;;;;;13.77;10.48;;;;;;;;;;6194033;28;20059;-84
2023/05/29 09:49:14;;;;;;;11.98;9.57;;;;;;;;;;6193395;28;20128;-78
2023/05/29 09:52:16;;;;;;;11.80;9.05;;;;;;;;;;6193901;28;20066;-78
2023/05/29 09:55:19;;;;;;;14.27;10.10;;;;;;;;;;6193863;28;20066;-77
2023/05/29 09:58:21;;;;;;;;;;;;;;;;;;6191781;28;20072;-77
2023/05/29 10:01:24;;;;;;;12.23;10.25;;;;;;;;;;6191877;28;19925;-79
2023/05/29 10:04:27;;;;;;;14.90;10.85;;;;;;;;;;6192567;28;20152;-86
2023/05/29 10:07:31;;;;;;;13.38;11.18;;;;;;;;;;6192724;28;20051;-80
2023/05/29 10:10:34;;;;;;;12.10;10.82;;;;;;;;;;6191828;28;20059;-81
2023/05/29 10:13:40;;;;;;;13.20;10.40;;;;;;;;;;6192793;28;20067;-81
2023/05/29 10:16:43;;;;;;;14.57;10.02;;;;;;;;;;6193312;28;20149;-81
2023/05/29 10:19:48;;;;;;;10.57;9.48;;;;;;;;;;6195411;28;20059;-83
2023/05/29 10:22:52;;;;;;;13.02;9.88;;;;;;;;;;6189820;28;20039;-82
2023/05/29 10:25:56;;;;;;;13.10;11.80;;;;;;;;;;6191745;28;20286;-81
2023/05/29 10:29:03;;;;;;;13.38;11.68;;;;;;;;;;6194169;28;20059;-82
2023/05/29 10:32:13;;;;;;;20.38;10.48;;;;;;;;;;6193479;28;20327;-84
2023/05/29 10:35:21;;;;;;;13.35;10.65;;;;;;;;;;6189423;28;20061;-83
2023/05/29 10:38:22;;;;;;;10.50;9.35;;;;;;;;;;6192394;28;20094;-84
2023/05/29 10:41:39;;;;;;;14.37;9.83;;;;;;;;;;6194351;28;20097;-83
2023/05/29 10:44:42;;;;;;;13.57;10.02;;;;;;;;;;6191989;28;20117;-84
2023/05/29 10:47:43;;;;;;;14.70;10.02;;;;;;;;;;6191702;28;20367;-84
2023/05/29 10:50:47;;;;;;;12.43;10.20;;;;;;;;;;6192273;28;20392;-82
2023/05/29 10:53:50;;;;;;;10.00;8.80;;;;;;;;;;6189122;28;20141;-82
2023/05/29 10:56:53;;;;;;;12.35;9.98;;;;;;;;;;6191493;28;20054;-83
2023/05/29 11:00:13;;;;;;;15.18;10.23;;;;;;;;;;6191512;28;20645;-83
2023/05/29 11:03:16;;;;;;;13.38;10.55;;;;;;;;;;6193829;28;20042;-83
2023/05/29 11:06:23;;;;;;;12.02;9.90;;;;;;;;;;6192427;28;20391;-83
2023/05/29 11:09:34;;;;;;;12.88;9.52;;;;;;;;;;6191621;28;20062;-83
2023/05/29 11:12:57;;;;;;;10.60;8.57;;;;;;;;;;6187681;28;20061;-83
2023/05/29 11:16:14;;;;;;;10.50;8.23;;;;;;;;;;6192921;28;20054;-83
2023/05/29 11:19:16;;;;;;;12.43;9.85;;;;;;;;;;6193162;28;20104;-82
2023/05/29 11:22:24;;;;;;;9.25;8.35;;;;;;;;;;6192206;28;20050;-95
2023/05/29 11:25:26;;;;;;;10.77;8.25;;;;;;;;;;6193702;28;20058;-87
2023/05/29 11:28:28;;;;;;;18.20;9.48;;;;;;;;;;6190849;28;20046;-80
2023/05/29 11:31:34;;;;;;;9.82;8.82;;;;;;;;;;6193935;28;20058;-83
2023/05/29 11:34:40;;;;;;;13.15;8.13;;;;;;;;;;6195723;28;20054;-81
2023/05/29 11:37:45;;;;;;;9.77;7.72;;;;;;;;;;6196927;28;20062;-80
2023/05/29 11:40:47;;;;;;;11.35;8.57;;;;;;;;;;6196297;28;20070;-85
2023/05/29 11:43:58;;;;;;;13.23;10.52;;;;;;;;;;6195799;28;20112;-81
2023/05/29 11:47:06;;;;;;;12.77;10.55;;;;;;;;;;6196650;28;20100;-81
2023/05/29 11:50:19;;;;;;;12.27;8.93;;;;;;;;;;6200617;28;20050;-79
2023/05/29 11:53:21;;;;;;;14.63;10.57;;;;;;;;;;6199293;28;20402;-83
2023/05/29 11:56:23;;;;;;;11.40;10.07;;;;;;;;;;6197647;28;20086;-82
2023/05/29 11:59:25;;;;;;;12.20;9.35;;;;;;;;;;6203219;28;20069;-85
2023/05/29 12:02:31;;;;;;;11.43;8.25;;;;;;;;;;6201382;28;20246;-78
2023/05/29 12:05:33;;;;;;;12.13;8.32;;;;;;;;;;6198025;28;20062;-78
2023/05/29 12:08:35;;;;;;;10.65;8.38;;;;;;;;;;6198404;28;20054;-78
2023/05/29 12:11:37;;;;;;;11.93;8.27;;;;;;;;;;6199785;28;20053;-78
2023/05/29 12:14:38;;;;;;;10.77;9.25;;;;;;;;;;6197471;28;20535;-78
2023/05/29 12:17:42;;;;;;;9.00;7.95;;;;;;;;;;6199637;28;20058;-81
2023/05/29 12:20:43;;;;;;;10.85;8.15;;;;;;;;;;6197797;28;20307;-80
2023/05/29 12:23:45;;;;;;;10.35;9.20;;;;;;;;;;6201105;28;20244;-80
2023/05/29 12:26:47;;;;;;;10.55;9.45;;;;;;;;;;6196871;28;20142;-80
2023/05/29 12:29:49;;;;;;;11.98;9.52;;;;;;;;;;6202478;28;20085;-80
2023/05/29 12:32:53;;;;;;;11.32;9.00;;;;;;;;;;6198694;28;20066;-82
2023/05/29 12:35:55;;;;;;;10.63;8.90;;;;;;;;;;6194501;28;20062;-82
2023/05/29 12:38:57;;;;;;;;;;;;;;;;;;6196520;28;20267;-82
2023/05/29 12:41:59;;;;;;;10.52;7.93;;;;;;;;;;6196722;28;19972;-83
2023/05/29 12:45:04;;;;;;;9.85;8.32;;;;;;;;;;6192842;28;20352;-81
2023/05/29 12:48:09;;;;;;;10.00;8.88;;;;;;;;;;6198499;28;20109;-82
2023/05/29 12:51:11;;;;;;;12.27;8.70;;;;;;;;;;6194646;28;20045;-83
2023/05/29 12:54:14;;;;;;;11.45;8.43;;;;;;;;;;6194111;28;20062;-82
2023/05/29 12:57:16;;;;;;;12.90;8.73;;;;;;;;;;6198305;28;20794;-83
2023/05/29 13:00:18;;;;;;;9.70;7.27;;;;;;;;;;6194558;28;20054;-82
2023/05/29 13:03:23;;;;;;;9.85;7.80;;;;;;;;;;6195832;28;20122;-79
2023/05/29 13:06:24;;;;;;;8.15;7.32;;;;;;;;;;6193687;28;20144;-82
2023/05/29 13:09:26;;;;;;;11.48;8.23;;;;;;;;;;6195189;28;20046;-82
2023/05/29 13:12:28;;;;;;;10.48;7.95;;;;;;;;;;6193025;28;20105;-83
2023/05/29 13:15:30;;;;;;;8.45;7.65;;;;;;;;;;6196166;28;20592;-81
2023/05/29 13:18:32;;;;;;;7.97;7.18;;;;;;;;;;6193707;28;20069;-82
2023/05/29 13:21:35;;;;;;;10.95;7.07;;;;;;;;;;6192436;28;20081;-81
2023/05/29 13:24:36;;;;;;;8.57;7.45;;;;;;;;;;6191669;28;20066;-82
2023/05/29 13:27:40;;;;;;;9.13;7.40;;;;;;;;;;6192727;28;20394;-82
2023/05/29 13:30:42;;;;;;;9.15;7.22;;;;;;;;;;6195780;28;20146;-82
2023/05/29 13:33:46;;;;;;;9.90;7.78;;;;;;;;;;6194403;28;20050;-81
2023/05/29 13:36:47;;;;;;;10.07;7.57;;;;;;;;;;6193739;28;20058;-81
2023/05/29 13:39:50;;;;;;;11.17;7.17;;;;;;;;;;6193207;28;20362;-82
2023/05/29 13:42:52;;;;;;;11.77;7.80;;;;;;;;;;6191369;28;20304;-82
2023/05/29 13:45:54;;;;;;;8.90;7.40;;;;;;;;;;6193993;28;20069;-81
2023/05/29 13:48:57;;;;;;;9.90;8.23;;;;;;;;;;6192180;28;20358;-83
2023/05/29 13:51:58;;;;;;;9.68;7.10;;;;;;;;;;6192128;28;20067;-80
2023/05/29 13:55:06;;;;;;;10.25;7.45;;;;;;;;;;6190646;28;20063;-81
2023/05/29 13:58:07;;;;;;;10.32;7.60;;;;;;;;;;6192578;28;20652;-82
2023/05/29 14:01:09;;;;;;;10.77;8.10;;;;;;;;;;6193747;28;20394;-81
2023/05/29 14:04:12;;;;;;;10.17;7.43;;;;;;;;;;6194345;28;20078;-82
2023/05/29 14:07:14;;;;;;;9.73;8.07;;;;;;;;;;6193745;28;20084;-81
2023/05/29 14:10:15;;;;;;;9.63;7.20;;;;;;;;;;6189044;28;20377;-82
2023/05/29 14:13:17;;;;;;;7.70;6.55;;;;;;;;;;6192756;28;20479;-82
2023/05/29 14:16:19;;;;;;;13.40;6.93;;;;;;;;;;6191383;28;20330;-82
2023/05/29 14:19:22;;;;;;;9.13;7.50;;;;;;;;;;6191520;28;20121;-82
2023/05/29 14:22:24;;;;;;;9.15;6.68;;;;;;;;;;6191834;28;20057;-82
2023/05/29 14:25:25;;;;;;;8.98;6.35;;;;;;;;;;6191534;28;20057;-83
2023/05/29 14:28:27;;;;;;;8.68;6.70;;;;;;;;;;6191391;28;20069;-83
2023/05/29 14:31:29;;;;;;;11.63;7.07;;;;;;;;;;6190879;28;20089;-82
2023/05/29 14:34:32;;;;;;;8.50;7.28;;;;;;;;;;6192862;28;20093;-81
2023/05/29 14:37:34;;;;;;;10.93;7.28;;;;;;;;;;6192775;28;20077;-83
2023/05/29 14:40:35;;;;;;;11.63;7.47;;;;;;;;;;6191772;28;20046;-81
2023/05/29 14:43:39;;;;;;;9.10;6.78;;;;;;;;;;6193111;28;20062;-81
2023/05/29 14:46:41;;;;;;;10.18;7.57;;;;;;;;;;6190864;28;20332;-82
2023/05/29 14:49:44;;;;;;;10.87;7.77;;;;;;;;;;6192501;28;20134;-82
2023/05/29 14:52:47;;;;;;;9.07;6.70;;;;;;;;;;6193214;28;20060;-81
2023/05/29 14:55:49;;;;;;;10.80;7.40;;;;;;;;;;6190625;28;20058;-82
2023/05/29 14:58:52;;;;;;;9.77;7.10;;;;;;;;;;6192100;28;20218;-81
2023/05/29 15:01:54;;;;;;;7.72;6.18;;;;;;;;;;6188002;28;20057;-83
2023/05/29 15:04:57;;;;;;;10.27;7.07;;;;;;;;;;6189665;28;20070;-81
2023/05/29 15:07:59;;;;;;;8.05;7.10;;;;;;;;;;6191807;28;20102;-82
2023/05/29 15:11:02;;;;;;;10.90;7.55;;;;;;;;;;6190225;28;20042;-81
2023/05/29 15:14:04;;;;;;;9.68;8.05;;;;;;;;;;6191802;28;20051;-83
2023/05/29 15:17:06;;;;;;;11.38;8.48;;;;;;;;;;6190319;28;20193;-82
2023/05/29 15:20:11;;;;;;;8.63;6.97;;;;;;;;;;6192778;28;20337;-82
2023/05/29 15:23:12;;;;;;;12.20;8.45;;;;;;;;;;6189261;28;20270;-81
2023/05/29 15:26:14;;;;;;;12.50;8.10;;;;;;;;;;6190073;28;20058;-82
2023/05/29 15:29:16;;;;;;;11.30;8.45;;;;;;;;;;6190420;28;20410;-81
2023/05/29 15:32:18;;;;;;;11.02;7.40;;;;;;;;;;6187946;28;20058;-81
2023/05/29 15:35:21;;;;;;;11.00;7.88;;;;;;;;;;6190820;28;20066;-82
2023/05/29 15:44:56;;;;;;;9.43;8.23;;;;;;;;;;6176430;28;20202;-79
2023/05/29 15:47:58;;;;;;;10.60;7.72;;;;;;;;;;6190875;28;20059;-81
2023/05/29 15:51:00;;;;;;;9.57;7.10;;;;;;;;;;6214508;28;20549;-81
2023/05/29 15:54:01;;;;;;;10.95;7.28;;;;;;;;;;6218186;28;20358;-82
2023/05/29 15:57:03;;;;;;;8.82;7.32;;;;;;;;;;6214372;28;20377;-82
2023/05/29 16:00:08;;;;;;;10.80;6.47;;;;;;;;;;6215795;28;20101;-82
2023/05/29 16:03:10;;;;;;;9.57;7.28;;;;;;;;;;6217044;28;20088;-82
2023/05/29 16:06:11;;;;;;;12.98;7.63;;;;;;;;;;6218704;28;20065;-81
2023/05/29 16:09:13;;;;;;;12.38;7.57;;;;;;;;;;6218086;28;20050;-79
2023/05/29 16:12:16;;;;;;;10.17;8.10;;;;;;;;;;6217174;28;20120;-79
2023/05/29 16:15:19;;;;;;;9.77;7.80;;;;;;;;;;6215292;28;20053;-79
2023/05/29 16:18:21;;;;;;;9.82;7.03;;;;;;;;;;6216004;28;20058;-80
2023/05/29 16:21:23;;;;;;;12.30;7.63;;;;;;;;;;6211852;28;20266;-79
2023/05/29 16:24:26;;;;;;;9.68;6.82;;;;;;;;;;6213456;28;20069;-81
2023/05/29 16:27:28;;;;;;;9.10;6.72;;;;;;;;;;6214340;28;20061;-80
2023/05/29 16:30:31;;;;;;;9.67;7.10;;;;;;;;;;6211875;28;20377;-79
2023/05/29 16:33:33;;;;;;;;;;;;;;;;;;6216244;28;20050;-80
2023/05/29 16:36:34;;;;;;;9.48;7.03;;;;;;;;;;6213713;28;19929;-79
2023/05/29 16:41:39;;;;;;;14.82;8.80;;;;;;;;;;6288708;27;1427511;-81
2023/05/29 16:44:42;;;;;;;10.18;7.75;;;;;;;;;;6340341;28;20052;-81
2023/05/29 16:47:43;;;;;;;9.40;6.75;;;;;;;;;;6341108;28;20055;-81
2023/05/29 16:50:45;;;;;;;11.57;7.57;;;;;;;;;;6337246;28;20059;-80
2023/05/29 16:53:47;;;;;;;14.32;7.70;;;;;;;;;;6340348;28;20082;-80
2023/05/29 16:56:50;;;;;;;11.82;7.55;;;;;;;;;;6337776;28;20055;-80
2023/05/29 16:59:51;;;;;;;10.45;6.55;;;;;;;;;;6339262;28;20056;-80
2023/05/29 17:02:53;;;;;;;11.00;7.07;;;;;;;;;;6341809;28;20233;-79
2023/05/29 17:05:55;;;;;;;8.50;6.53;;;;;;;;;;6341383;28;20061;-78
2023/05/29 17:08:56;;;;;;;9.98;7.07;;;;;;;;;;6338254;28;20089;-79
2023/05/29 17:12:00;;;;;;;10.90;6.20;;;;;;;;;;6338603;28;20052;-79
2023/05/29 17:15:01;;;;;;;10.27;7.13;;;;;;;;;;6336487;28;20059;-79
2023/05/29 17:18:03;;;;;;;9.27;6.30;;;;;;;;;;6334771;28;20055;-80
2023/05/29 17:21:05;;;;;;;10.20;6.75;;;;;;;;;;6334532;28;20152;-80
2023/05/29 17:24:07;;;;;;;10.23;7.50;;;;;;;;;;6337176;28;20052;-79
2023/05/29 17:27:10;;;;;;;11.70;7.22;;;;;;;;;;6335460;28;20236;-79
2023/05/29 17:30:13;;;;;;;16.48;6.43;;;;;;;;;;6335570;28;20125;-78
2023/05/29 17:33:15;;;;;;;7.18;5.97;;;;;;;;;;6335796;28;20062;-80
2023/05/29 17:36:17;;;;;;;10.05;6.28;;;;;;;;;;6332891;28;20052;-80
2023/05/29 17:39:18;;;;;;;8.55;5.65;;;;;;;;;;6319896;28;20052;-80
2023/05/29 17:42:21;;;;;;;8.10;6.07;;;;;;;;;;6321449;28;20213;-80
2023/05/29 17:45:23;;;;;;;;;;;;;;;;;;6323698;28;20060;-80
2023/05/29 17:48:24;;;;;;;11.73;6.57;;;;;;;;;;6320665;28;20147;-80
2023/05/29 17:51:26;;;;;;;8.77;6.38;;;;;;;;;;6308049;28;20048;-80
2023/05/29 17:54:28;;;;;;;8.95;5.88;;;;;;;;;;6298632;28;20048;-79
2023/05/29 17:57:31;;;;;;;9.20;6.93;;;;;;;;;;6302694;28;20064;-78
2023/05/29 18:00:33;;;;;;;;;;;;;;;;;;6297820;28;20098;-79
2023/05/29 18:03:34;;;;;;;8.10;6.53;;;;;;;;;;6301182;28;19935;-81
2023/05/29 18:06:36;;;;;;;8.68;6.13;;;;;;;;;;6303413;28;20098;-80
2023/05/29 18:09:38;;;;;;;8.10;5.97;;;;;;;;;;6304532;28;20373;-82
2023/05/29 18:12:41;;;;;;;10.90;5.88;;;;;;;;;;6298687;28;20717;-88
2023/05/29 18:15:42;;;;;;;;;;;;;;;;;;6297613;28;20056;-81